createdAt,value
2019-04-30T00:00:20.877Z,98648.34
2019-04-30T00:05:26.042Z,98645.17
2019-04-30T00:10:36.981Z,98652.30
2019-04-30T00:15:38.126Z,98647.74
2019-04-30T00:20:46.978Z,98641.45
2019-04-30T00:25:51.722Z,98645.72
2019-04-30T00:30:57.110Z,98646.90
2019-04-30T00:36:02.273Z,98639.63
2019-04-30T00:41:10.145Z,98641.30
2019-04-30T00:46:17.405Z,98638.17
2019-04-30T00:51:21.704Z,98638.23
2019-04-30T00:56:28.283Z,98632.28
2019-04-30T01:01:58.893Z,98628.53
2019-04-30T01:07:08.582Z,98627.73
2019-04-30T01:12:17.482Z,98627.94
2019-04-30T01:17:19.859Z,98633.55
2019-04-30T01:22:29.232Z,98624.59
2019-04-30T01:27:32.472Z,98622.67
2019-04-30T01:32:39.423Z,98623.16
2019-04-30T01:37:44.690Z,98621.45
2019-04-30T01:42:51.616Z,98619.05
2019-04-30T01:48:00.740Z,98610.67
2019-04-30T01:53:04.702Z,98603.72
2019-04-30T01:58:30.196Z,98610.50
2019-04-30T02:03:35.713Z,98608.77
2019-04-30T02:08:40.895Z,98614.67
2019-04-30T02:13:45.975Z,98615.41
2019-04-30T02:18:51.140Z,98618.06
2019-04-30T02:23:56.297Z,98619.21
2019-04-30T02:29:01.451Z,98620.43
2019-04-30T02:34:22.425Z,98621.70
2019-04-30T02:39:30.138Z,98625.78
2019-04-30T02:44:36.497Z,98619.59
2019-04-30T02:49:43.926Z,98619.22
2019-04-30T02:54:50.825Z,98614.81
2019-04-30T03:00:13.355Z,98618.47
2019-04-30T03:05:20.262Z,98618.97
2019-04-30T03:10:25.488Z,98613.67
2019-04-30T03:15:30.601Z,98619.75
2019-04-30T03:20:50.001Z,98626.98
2019-04-30T03:25:55.160Z,98629.78
2019-04-30T03:31:04.328Z,98630.19
2019-04-30T03:36:11.978Z,98633.38
2019-04-30T03:41:15.008Z,98635.88
2019-04-30T03:46:20.175Z,98630.30
2019-04-30T03:51:25.354Z,98627.91
2019-04-30T03:56:31.334Z,98630.31
2019-04-30T04:02:02.272Z,98629.33
2019-04-30T04:07:25.553Z,98640.41
2019-04-30T04:12:30.831Z,98643.79
2019-04-30T04:17:36.117Z,98646.70
2019-04-30T04:22:41.888Z,98651.44
2019-04-30T04:27:50.582Z,98655.95
2019-04-30T04:32:55.102Z,98652.72
2019-04-30T04:38:00.568Z,98654.36
2019-04-30T04:43:05.817Z,98665.20
2019-04-30T04:48:10.996Z,98669.67
2019-04-30T04:53:16.393Z,98676.75
2019-04-30T04:58:21.939Z,98685.45
2019-04-30T05:03:33.660Z,98679.87
2019-04-30T05:08:39.621Z,98677.97
2019-04-30T05:13:45.318Z,98681.69
2019-04-30T05:18:50.827Z,98686.70
2019-04-30T05:23:56.288Z,98692.77
2019-04-30T05:29:01.470Z,98694.05
2019-04-30T05:34:10.286Z,98696.58
2019-04-30T05:39:15.572Z,98698.72
2019-04-30T05:44:20.812Z,98701.51
2019-04-30T05:49:26.400Z,98707.98
2019-04-30T05:54:31.550Z,98710.62
2019-04-30T05:59:38.703Z,98704.59
2019-04-30T06:04:43.582Z,98702.41
2019-04-30T06:10:06.933Z,98706.50
2019-04-30T06:15:39.009Z,98708.75
2019-04-30T06:20:44.376Z,98701.80
2019-04-30T06:25:59.605Z,98711.05
2019-04-30T06:30:59.468Z,98719.29
2019-04-30T06:36:04.689Z,98724.28
2019-04-30T06:41:10.564Z,98714.91
2019-04-30T06:46:16.312Z,98720.81
2019-04-30T06:51:21.728Z,98722.33
2019-04-30T06:56:28.841Z,98714.64
2019-04-30T07:01:33.695Z,98715.19
2019-04-30T07:06:43.870Z,98712.09
2019-04-30T07:11:50.452Z,98709.98
2019-04-30T07:16:55.896Z,98714.88
2019-04-30T07:22:01.436Z,98713.94
2019-04-30T07:27:09.382Z,98718.91
2019-04-30T07:32:14.644Z,98712.98
2019-04-30T07:37:24.386Z,98716.54
2019-04-30T07:42:29.462Z,98717.99
2019-04-30T07:47:34.557Z,98723.84
2019-04-30T07:52:58.119Z,98728.31
2019-04-30T07:57:50.111Z,98729.91
2019-04-30T08:03:01.534Z,98721.28
2019-04-30T08:08:17.683Z,98734.14
2019-04-30T08:13:15.639Z,98735.20
2019-04-30T08:18:22.250Z,98737.97
2019-04-30T08:23:34.927Z,98732.17
2019-04-30T08:28:34.490Z,98739.09
2019-04-30T08:33:40.299Z,98738.34
2019-04-30T08:38:45.488Z,98734.39
2019-04-30T08:43:50.771Z,98738.56
2019-04-30T08:48:58.546Z,98733.92
2019-04-30T08:54:03.643Z,98731.23
2019-04-30T08:59:11.273Z,98722.88
2019-04-30T09:04:16.091Z,98740.83
2019-04-30T09:09:23.459Z,98732.12
2019-04-30T09:14:29.718Z,98741.34
2019-04-30T09:19:35.159Z,98733.24
2019-04-30T09:24:40.336Z,98737.52
2019-04-30T09:29:45.622Z,98739.20
2019-04-30T09:34:51.149Z,98735.46
2019-04-30T09:39:56.492Z,98747.73
2019-04-30T09:45:01.998Z,98739.55
2019-04-30T09:50:08.994Z,98729.14
2019-04-30T09:55:14.697Z,98730.52
2019-04-30T10:00:21.169Z,98732.22
2019-04-30T10:05:26.814Z,98732.33
2019-04-30T10:10:38.744Z,98714.28
2019-04-30T10:16:06.275Z,98720.29
2019-04-30T10:21:11.441Z,98704.39
2019-04-30T10:26:17.652Z,98712.53
2019-04-30T10:31:23.161Z,98720.89
2019-04-30T10:36:29.599Z,98705.73
2019-04-30T10:41:34.872Z,98714.77
2019-04-30T10:46:41.189Z,98711.74
2019-04-30T10:51:46.360Z,98710.53
2019-04-30T10:56:51.601Z,98717.38
2019-04-30T11:01:56.783Z,98695.55
2019-04-30T11:07:02.043Z,98694.57
2019-04-30T11:12:09.353Z,98695.39
2019-04-30T11:17:14.670Z,98702.91
2019-04-30T11:22:20.331Z,98701.30
2019-04-30T11:27:26.417Z,98701.28
2019-04-30T11:32:32.150Z,98698.73
2019-04-30T11:37:37.452Z,98697.39
2019-04-30T11:42:42.696Z,98681.77
2019-04-30T11:47:53.487Z,98680.67
2019-04-30T11:53:07.147Z,98677.04
2019-04-30T11:58:03.900Z,98675.61
2019-04-30T12:03:09.471Z,98664.67
2019-04-30T12:08:19.710Z,98656.64
2019-04-30T12:13:32.386Z,98656.55
2019-04-30T12:18:37.645Z,98657.92
2019-04-30T12:23:42.912Z,98646.42
2019-04-30T12:28:48.162Z,98653.22
2019-04-30T12:33:53.981Z,98645.31
2019-04-30T12:38:59.238Z,98648.31
2019-04-30T12:44:04.960Z,98645.27
2019-04-30T12:49:12.236Z,98630.36
2019-04-30T12:54:45.494Z,98617.30
2019-04-30T12:59:50.573Z,98620.81
2019-04-30T13:04:56.030Z,98620.47
2019-04-30T13:10:02.712Z,98630.72
2019-04-30T13:15:10.467Z,98626.64
2019-04-30T13:20:21.004Z,98614.15
2019-04-30T13:25:32.522Z,98598.82
2019-04-30T13:30:31.255Z,98607.53
2019-04-30T13:35:36.594Z,98603.30
2019-04-30T13:40:51.476Z,98585.97
2019-04-30T13:45:58.588Z,98585.47
2019-04-30T13:51:04.252Z,98581.98
2019-04-30T13:56:09.530Z,98577.63
2019-04-30T14:01:14.806Z,98589.64
2019-04-30T14:06:22.764Z,98591.50
2019-04-30T14:11:28.011Z,98569.00
2019-04-30T14:16:33.298Z,98555.52
2019-04-30T14:21:39.199Z,98562.69
2019-04-30T14:26:44.962Z,98568.86
2019-04-30T14:31:50.680Z,98548.82
2019-04-30T14:36:59.187Z,98539.13
2019-04-30T14:42:04.591Z,98542.05
2019-04-30T14:47:31.476Z,98552.26
2019-04-30T14:52:45.141Z,98548.73
2019-04-30T14:58:10.068Z,98545.98
2019-04-30T15:03:16.670Z,98542.80
2019-04-30T15:08:21.976Z,98532.63
2019-04-30T15:13:29.499Z,98534.26
2019-04-30T15:18:34.857Z,98520.50
2019-04-30T15:23:58.690Z,98522.02
2019-04-30T15:29:00.096Z,98516.56
2019-04-30T15:34:11.153Z,98513.80
2019-04-30T15:39:42.593Z,98514.39
2019-04-30T15:44:49.696Z,98509.50
2019-04-30T15:49:56.151Z,98508.45
2019-04-30T15:55:01.416Z,98515.06
2019-04-30T16:00:08.730Z,98510.47
2019-04-30T16:05:33.013Z,98514.75
2019-04-30T16:11:09.630Z,98512.01
2019-04-30T16:16:13.635Z,98511.63
2019-04-30T16:21:19.476Z,98505.93
2019-04-30T16:26:24.704Z,98500.65
2019-04-30T16:31:29.963Z,98499.24
2019-04-30T16:36:35.581Z,98503.19
2019-04-30T16:41:41.552Z,98488.18
2019-04-30T16:46:46.809Z,98490.30
2019-04-30T16:51:52.538Z,98489.86
2019-04-30T16:57:04.058Z,98488.84
2019-04-30T17:02:06.271Z,98484.78
2019-04-30T17:07:30.975Z,98476.11
2019-04-30T17:12:51.226Z,98473.61
2019-04-30T17:17:55.424Z,98469.09
2019-04-30T17:23:00.829Z,98472.81
2019-04-30T17:28:08.774Z,98474.20
2019-04-30T17:33:14.123Z,98477.56
2019-04-30T17:38:19.397Z,98469.99
2019-04-30T17:43:24.658Z,98468.96
2019-04-30T17:48:30.983Z,98470.64
2019-04-30T17:53:38.917Z,98468.59
2019-04-30T17:58:44.699Z,98468.89
2019-04-30T18:03:49.946Z,98466.33
2019-04-30T18:08:55.309Z,98462.71
2019-04-30T18:14:00.674Z,98471.55
2019-04-30T18:19:18.793Z,98465.00
2019-04-30T18:24:43.149Z,98469.45
2019-04-30T18:29:48.494Z,98464.95
2019-04-30T18:34:59.031Z,98480.95
2019-04-30T18:40:04.315Z,98475.40
2019-04-30T18:45:11.455Z,98478.29
2019-04-30T18:50:16.988Z,98473.66
2019-04-30T18:55:22.245Z,98489.45
2019-04-30T19:00:39.559Z,98485.14
2019-04-30T19:05:49.203Z,98488.27
2019-04-30T19:11:18.680Z,98487.61
2019-04-30T19:16:47.005Z,98500.09
2019-04-30T19:21:52.512Z,98504.29
2019-04-30T19:26:58.715Z,98504.09
2019-04-30T19:32:04.558Z,98505.74
2019-04-30T19:37:10.927Z,98505.02
2019-04-30T19:42:18.663Z,98505.67
2019-04-30T19:47:23.735Z,98503.97
2019-04-30T19:52:29.887Z,98503.23
2019-04-30T19:57:35.204Z,98500.31
2019-04-30T20:02:40.785Z,98510.51
2019-04-30T20:07:46.098Z,98514.69
2019-04-30T20:12:51.726Z,98510.36
2019-04-30T20:17:58.326Z,98515.23
2019-04-30T20:23:05.458Z,98511.52
2019-04-30T20:28:12.308Z,98511.94
2019-04-30T20:33:19.064Z,98508.68
2019-04-30T20:38:55.601Z,98511.47
2019-04-30T20:44:01.106Z,98513.23
2019-04-30T20:49:06.405Z,98511.23
2019-04-30T20:54:11.667Z,98506.88
2019-04-30T20:59:18.890Z,98505.18
2019-04-30T21:04:24.872Z,98502.97
2019-04-30T21:09:30.208Z,98499.48
2019-04-30T21:14:35.816Z,98496.70
2019-04-30T21:19:41.001Z,98493.86
2019-04-30T21:24:46.548Z,98488.32
2019-04-30T21:29:52.105Z,98490.39
2019-04-30T21:35:19.111Z,98490.23
2019-04-30T21:40:24.290Z,98490.74
2019-04-30T21:45:31.546Z,98495.11
2019-04-30T21:50:39.615Z,98493.59
2019-04-30T21:55:44.658Z,98488.59
2019-04-30T22:01:17.772Z,98487.14
2019-04-30T22:06:23.233Z,98485.42
2019-04-30T22:11:29.602Z,98484.09
2019-04-30T22:16:35.186Z,98484.37
2019-04-30T22:21:40.531Z,98484.61
2019-04-30T22:26:45.701Z,98480.16
2019-04-30T22:31:50.874Z,98470.17
2019-04-30T22:36:56.301Z,98475.81
2019-04-30T22:42:11.436Z,98470.60
2019-04-30T22:47:17.435Z,98468.25
2019-04-30T22:52:22.996Z,98473.41
2019-04-30T22:57:29.752Z,98475.38
2019-04-30T23:02:48.259Z,98482.24
2019-04-30T23:07:54.359Z,98467.64
2019-04-30T23:12:59.556Z,98470.12
2019-04-30T23:18:05.285Z,98464.66
2019-04-30T23:23:10.455Z,98465.36
2019-04-30T23:28:17.040Z,98463.53
2019-04-30T23:33:22.350Z,98456.06
2019-04-30T23:38:27.535Z,98451.55
2019-04-30T23:43:32.726Z,98446.52
2019-04-30T23:48:38.951Z,98439.11
2019-04-30T23:53:44.150Z,98440.60
2019-04-30T23:58:49.562Z,98433.61
